Time;durP1;ratioP1;P1;durP2;ratioP2;P2;SDS_P1;SDS_P2;PMS_P1;PMS_P2;Temp;Humidity;BMP_temperature;BMP_pressure;BME280_temperature;BME280_humidity;BME280_pressure;Samples;Min_cycle;Max_cycle;Signal;HPM_P1;HPM_P2
2022/09/17 00:01:16;;;;;;;9.20;4.53;;;;;;;16.20;100.00;93810.69;5129829;27;20686;-74
2022/09/17 00:03:44;;;;;;;9.25;4.30;;;;;;;16.17;100.00;93806.00;5130823;27;20196;-74
2022/09/17 00:06:12;;;;;;;4.85;3.60;;;;;;;16.26;100.00;93808.41;5130406;27;20228;-74
2022/09/17 00:08:41;;;;;;;9.20;4.65;;;;;;;16.22;100.00;93791.97;5130739;27;20280;-74
2022/09/17 00:11:09;;;;;;;11.05;4.25;;;;;;;16.17;100.00;93778.66;5131315;27;20196;-74
2022/09/17 00:13:36;;;;;;;11.10;4.35;;;;;;;16.28;100.00;93795.88;5131307;27;20692;-74
2022/09/17 00:16:03;;;;;;;8.27;3.88;;;;;;;16.15;100.00;93772.81;5130768;27;20203;-74
2022/09/17 00:18:31;;;;;;;7.60;4.18;;;;;;;16.18;100.00;93768.53;5131114;27;20261;-74
2022/09/17 00:20:58;;;;;;;5.40;3.38;;;;;;;16.14;100.00;93778.66;5131155;27;20239;-74
2022/09/17 00:23:25;;;;;;;10.90;4.25;;;;;;;16.18;100.00;93774.78;5131221;27;20200;-74
2022/09/17 00:25:52;;;;;;;7.95;3.90;;;;;;;16.22;100.00;93774.78;5130741;27;20331;-75
2022/09/17 00:28:18;;;;;;;8.80;4.40;;;;;;;16.43;100.00;93768.63;5130681;27;20284;-74
2022/09/17 00:30:46;;;;;;;7.50;3.53;;;;;;;16.28;100.00;93763.09;5117714;27;20713;-74
2022/09/17 00:33:15;;;;;;;12.32;3.97;;;;;;;16.02;100.00;93760.63;5130637;27;20711;-73
2022/09/17 00:35:44;;;;;;;8.27;3.65;;;;;;;16.11;100.00;93773.97;5130590;27;20601;-74
2022/09/17 00:38:11;;;;;;;6.15;3.70;;;;;;;16.16;100.00;93782.56;5129868;27;20707;-74
2022/09/17 00:40:38;;;;;;;7.20;3.50;;;;;;;16.17;100.00;93784.13;5130834;27;20208;-74
2022/09/17 00:43:11;;;;;;;8.15;3.20;;;;;;;16.22;100.00;93786.50;5130846;27;20213;-75
2022/09/17 00:45:38;;;;;;;7.50;3.53;;;;;;;16.24;100.00;93799.78;5130244;27;20191;-74
2022/09/17 00:48:06;;;;;;;8.40;3.88;;;;;;;16.08;100.00;93802.84;5129602;27;20284;-74
2022/09/17 00:50:37;;;;;;;9.27;4.25;;;;;;;16.10;100.00;93795.03;5130630;27;20201;-74
2022/09/17 00:53:08;;;;;;;6.93;4.32;;;;;;;16.13;100.00;93794.25;5130583;27;20209;-73
2022/09/17 00:55:37;;;;;;;6.70;3.97;;;;;;;16.26;100.00;93797.47;5130392;27;20185;-74
2022/09/17 00:58:08;;;;;;;5.88;3.70;;;;;;;16.12;100.00;93787.25;5129900;27;20321;-73
2022/09/17 01:00:34;;;;;;;8.27;4.22;;;;;;;16.16;100.00;93804.44;5131003;27;20193;-73
2022/09/17 01:03:01;;;;;;;9.48;4.07;;;;;;;16.16;100.00;93820.81;5130070;28;20756;-75
2022/09/17 01:05:36;;;;;;;9.32;4.07;;;;;;;16.03;100.00;93816.06;5129722;27;20723;-74
2022/09/17 01:08:14;;;;;;;5.07;3.72;;;;;;;16.06;100.00;93805.16;5122040;28;20411;-74
2022/09/17 01:11:04;;;;;;;12.20;4.18;;;;;;;16.03;100.00;93800.44;5129906;28;20242;-74
2022/09/17 01:13:43;;;;;;;11.45;4.50;;;;;;;16.03;100.00;93780.53;5132287;27;20583;-74
2022/09/17 01:16:19;;;;;;;5.63;3.88;;;;;;;16.02;100.00;93779.75;5128747;27;20805;-74
2022/09/17 01:18:59;;;;;;;7.18;4.07;;;;;;;16.01;100.00;93775.47;5134403;27;20188;-74
2022/09/17 01:21:46;;;;;;;10.50;3.95;;;;;;;15.99;100.00;93784.03;5134721;27;20216;-74
2022/09/17 01:24:46;;;;;;;8.18;3.83;;;;;;;16.10;100.00;93770.44;5120550;27;20201;-74
2022/09/17 01:27:49;;;;;;;9.27;3.80;;;;;;;16.21;100.00;93762.28;5133086;27;20672;-74
2022/09/17 01:31:00;;;;;;;7.18;3.92;;;;;;;16.19;100.00;93770.88;5134648;27;20205;-74
2022/09/17 01:33:36;;;;;;;8.65;4.00;;;;;;;16.00;100.00;93779.34;5099326;27;20778;-74
2022/09/17 01:36:14;;;;;;;7.00;4.25;;;;;;;16.12;100.00;93792.72;5133939;27;20276;-74
2022/09/17 01:38:48;;;;;;;11.15;4.47;;;;;;;16.05;100.00;93781.72;5133827;27;20280;-74
2022/09/17 01:41:28;;;;;;;9.52;4.90;;;;;;;16.13;100.00;93783.31;5134323;27;20196;-74
2022/09/17 01:44:01;;;;;;;7.32;3.95;;;;;;;16.11;100.00;93763.81;5122185;27;20273;-75
2022/09/17 01:46:33;;;;;;;6.72;3.92;;;;;;;16.19;100.00;93764.63;5133946;27;20274;-74
2022/09/17 01:49:05;;;;;;;6.72;3.90;;;;;;;16.19;100.00;93753.69;5133664;27;20228;-74
2022/09/17 01:51:37;;;;;;;7.70;4.22;;;;;;;16.23;100.00;93714.28;5134144;27;20201;-73
2022/09/17 01:54:07;;;;;;;11.40;3.60;;;;;;;16.31;100.00;93712.34;5134394;27;20569;-73
2022/09/17 01:56:40;;;;;;;11.05;4.40;;;;;;;16.43;100.00;93724.88;5133684;27;20539;-73
2022/09/17 01:59:12;;;;;;;7.53;3.25;;;;;;;16.35;100.00;93738.53;5133780;27;20189;-74
2022/09/17 02:01:43;;;;;;;10.90;4.68;;;;;;;16.20;100.00;93772.44;5120868;27;20217;-74
2022/09/17 02:04:17;;;;;;;9.32;4.82;;;;;;;16.19;100.00;93779.06;5134373;27;20201;-75
2022/09/17 02:06:48;;;;;;;9.27;4.65;;;;;;;16.22;100.00;93752.94;5133296;27;20234;-75
2022/09/17 02:09:19;;;;;;;6.88;3.78;;;;;;;16.20;100.00;93745.13;5133287;27;20716;-74
2022/09/17 02:11:51;;;;;;;10.35;4.10;;;;;;;16.25;100.00;93752.16;5133200;27;20281;-74
2022/09/17 02:14:22;;;;;;;6.45;4.07;;;;;;;16.32;100.00;93725.63;5133455;27;20197;-74
2022/09/17 02:16:55;;;;;;;8.75;4.55;;;;;;;16.31;100.00;93694.00;5133233;27;20241;-73
2022/09/17 02:19:26;;;;;;;6.07;4.10;;;;;;;16.33;100.00;93682.69;5132844;27;20245;-73
2022/09/17 02:22:02;;;;;;;11.98;4.40;;;;;;;16.40;100.00;93654.59;5133703;27;20231;-73
2022/09/17 02:24:35;;;;;;;9.10;3.85;;;;;;;16.40;100.00;93632.75;5132550;27;20235;-73
2022/09/17 02:27:07;;;;;;;7.57;4.43;;;;;;;16.38;100.00;93621.41;5132680;27;20193;-73
2022/09/17 02:29:38;;;;;;;5.28;4.00;;;;;;;16.42;100.00;93638.56;5133372;27;20719;-73
2022/09/17 02:32:07;;;;;;;10.98;4.60;;;;;;;16.45;100.00;93618.66;5133217;27;20613;-74
2022/09/17 02:34:35;;;;;;;11.98;4.38;;;;;;;16.42;100.00;93617.50;5132919;27;20679;-75
2022/09/17 02:37:03;;;;;;;7.13;4.00;;;;;;;16.43;100.00;93630.00;5132577;27;20204;-72
2022/09/17 02:39:30;;;;;;;6.47;3.85;;;;;;;16.35;100.00;93640.13;5133331;27;20197;-73
2022/09/17 02:42:06;;;;;;;8.45;3.65;;;;;;;16.32;100.00;93665.50;5132897;27;20328;-75
2022/09/17 02:44:43;;;;;;;4.78;3.00;;;;;;;16.27;100.00;93659.63;5133101;27;20651;-75
2022/09/17 02:47:42;;;;;;;4.97;3.47;;;;;;;16.32;100.00;93660.03;5132373;27;20266;-75
2022/09/17 02:50:29;;;;;;;7.15;4.03;;;;;;;16.35;100.00;93697.53;5132483;27;20229;-76
2022/09/17 02:53:11;;;;;;;6.13;3.10;;;;;;;16.37;100.00;93655.38;5133456;27;20185;-75
2022/09/17 02:55:42;;;;;;;7.47;4.00;;;;;;;16.31;100.00;93663.94;5132780;27;20205;-75
2022/09/17 02:58:20;;;;;;;10.52;3.80;;;;;;;16.26;100.00;93677.97;5132577;27;20194;-75
2022/09/17 03:00:48;;;;;;;6.43;4.07;;;;;;;16.31;100.00;93635.81;5133288;27;20201;-74
2022/09/17 03:03:20;;;;;;;6.70;3.60;;;;;;;16.37;100.00;93647.19;5132995;27;20244;-74
2022/09/17 03:05:49;;;;;;;6.28;4.18;;;;;;;16.43;100.00;93643.66;5132366;27;20636;-74
2022/09/17 03:08:19;;;;;;;6.85;4.00;;;;;;;16.37;100.00;93620.63;5132558;27;20595;-75
2022/09/17 03:10:47;;;;;;;12.15;4.03;;;;;;;16.33;100.00;93608.91;5132270;27;20205;-74
2022/09/17 03:13:15;;;;;;;7.40;4.22;;;;;;;16.52;100.00;93602.28;5132429;27;20390;-75
2022/09/17 03:15:41;;;;;;;10.50;3.55;;;;;;;16.45;100.00;93618.66;5132054;27;20968;-75
2022/09/17 03:18:08;;;;;;;6.00;3.08;;;;;;;16.39;100.00;93626.50;5131627;27;20193;-75
2022/09/17 03:20:37;;;;;;;5.72;3.13;;;;;;;16.35;100.00;93642.88;5132053;27;20213;-76
2022/09/17 03:23:03;;;;;;;6.30;3.05;;;;;;;16.22;100.00;93628.00;5132343;27;20278;-75
2022/09/17 03:25:30;;;;;;;9.80;3.75;;;;;;;16.14;100.00;93633.84;5131768;27;20189;-75
2022/09/17 03:27:57;;;;;;;4.47;3.15;;;;;;;16.15;100.00;93649.84;5131875;27;20205;-75
2022/09/17 03:30:24;;;;;;;6.63;3.20;;;;;;;16.15;100.00;93633.44;5132420;27;20269;-75
2022/09/17 03:32:51;;;;;;;6.95;4.20;;;;;;;16.20;100.00;93641.28;5132183;27;20224;-74
2022/09/17 03:35:18;;;;;;;5.38;3.35;;;;;;;16.25;100.00;93643.66;5131715;27;20257;-73
2022/09/17 03:37:47;;;;;;;8.30;3.78;;;;;;;16.26;100.00;93630.75;5131539;27;20193;-75
2022/09/17 03:40:14;;;;;;;6.15;4.13;;;;;;;16.19;100.00;93617.06;5132129;27;20284;-74
2022/09/17 03:42:40;;;;;;;5.75;3.67;;;;;;;16.21;100.00;93626.44;5131905;27;20602;-74
2022/09/17 03:45:08;;;;;;;4.22;2.97;;;;;;;16.32;100.00;93605.38;5131613;27;20200;-74
2022/09/17 03:47:35;;;;;;;5.53;3.00;;;;;;;16.26;100.00;93601.44;5131103;27;20434;-73
2022/09/17 03:50:02;;;;;;;7.03;3.75;;;;;;;16.32;100.00;93588.97;5131790;27;20611;-74
2022/09/17 03:52:28;;;;;;;5.82;3.30;;;;;;;16.37;100.00;93589.78;5131284;27;20235;-75
2022/09/17 03:54:56;;;;;;;5.60;3.13;;;;;;;16.35;100.00;93579.22;5131201;27;20209;-74
2022/09/17 03:57:23;;;;;;;5.00;3.38;;;;;;;16.44;100.00;93603.44;5131595;27;20201;-75
2022/09/17 03:59:50;;;;;;;6.13;2.80;;;;;;;16.43;100.00;93604.59;5131827;27;20246;-74
2022/09/17 04:02:17;;;;;;;5.53;2.63;;;;;;;16.71;94.87;93610.13;5132220;27;20277;-74
2022/09/17 04:04:44;;;;;;;4.72;2.88;;;;;;;16.72;97.39;93611.69;5117632;27;20238;-73
2022/09/17 04:07:11;;;;;;;4.45;2.88;;;;;;;16.62;98.87;93612.44;5131198;27;20325;-75
2022/09/17 04:09:37;;;;;;;4.18;2.80;;;;;;;16.61;98.85;93621.81;5118642;27;20197;-74
2022/09/17 04:12:06;;;;;;;6.45;2.95;;;;;;;16.77;98.91;93624.97;5131509;27;20213;-74
2022/09/17 04:14:33;;;;;;;3.35;2.65;;;;;;;16.80;98.16;93628.88;5131073;27;20200;-74
2022/09/17 04:17:00;;;;;;;11.48;3.15;;;;;;;16.78;97.48;93648.41;5130578;27;20185;-74
2022/09/17 04:19:26;;;;;;;6.50;3.00;;;;;;;16.87;97.66;93646.06;5118562;27;20205;-74
2022/09/17 04:21:53;;;;;;;8.15;2.95;;;;;;;16.93;97.15;93668.34;5131191;27;20663;-74
2022/09/17 04:24:20;;;;;;;11.75;3.33;;;;;;;16.92;97.20;93686.72;5131524;27;20671;-75
2022/09/17 04:26:47;;;;;;;12.32;3.55;;;;;;;17.21;95.46;93708.59;5130344;27;20197;-74
2022/09/17 04:29:15;;;;;;;4.15;2.95;;;;;;;17.63;93.93;93700.34;5131325;27;20196;-74
2022/09/17 04:31:42;;;;;;;4.97;2.65;;;;;;;17.63;92.83;93716.00;5131163;27;20200;-77
2022/09/17 04:34:09;;;;;;;8.27;2.67;;;;;;;17.60;92.56;93720.28;5131364;27;20200;-74
2022/09/17 04:36:35;;;;;;;9.23;3.33;;;;;;;17.69;92.42;93728.13;5131077;27;20198;-74
2022/09/17 04:39:02;;;;;;;9.02;3.20;;;;;;;17.61;91.96;93721.84;5131085;27;20189;-74
2022/09/17 04:41:29;;;;;;;4.88;3.13;;;;;;;17.62;92.66;93745.34;5131444;27;20205;-74
2022/09/17 04:43:56;;;;;;;5.25;2.95;;;;;;;17.43;93.48;93743.00;5131001;27;20692;-74
2022/09/17 04:46:24;;;;;;;7.50;3.28;;;;;;;17.35;94.12;93766.88;5130407;27;20220;-74
2022/09/17 04:48:50;;;;;;;9.05;2.97;;;;;;;17.24;95.72;93768.03;5129757;27;20670;-74
2022/09/17 04:51:18;;;;;;;7.28;3.25;;;;;;;16.95;96.83;93757.03;5130539;27;20651;-74
2022/09/17 04:53:44;;;;;;;7.60;3.15;;;;;;;16.85;97.80;93768.75;5131060;27;20217;-73
2022/09/17 04:56:11;;;;;;;6.10;2.90;;;;;;;16.89;98.70;93791.44;5130393;27;20205;-74
2022/09/17 04:58:38;;;;;;;8.85;3.67;;;;;;;16.81;98.81;93781.66;5129933;27;20211;-74
2022/09/17 05:01:05;;;;;;;9.18;3.30;;;;;;;16.84;99.65;93778.13;5130593;27;20197;-74
2022/09/17 05:03:33;;;;;;;5.82;3.22;;;;;;;16.84;99.98;93771.88;5130335;27;20225;-74
2022/09/17 05:06:00;;;;;;;6.07;2.78;;;;;;;16.84;99.37;93767.19;5130610;27;20200;-75
2022/09/17 05:08:27;;;;;;;6.07;2.72;;;;;;;16.96;99.32;93764.09;5130197;28;20201;-74
2022/09/17 05:10:54;;;;;;;6.72;2.95;;;;;;;17.02;98.27;93757.06;5130507;28;20253;-75
2022/09/17 05:13:21;;;;;;;3.75;2.40;;;;;;;17.16;97.63;93761.00;5130988;28;20197;-73
2022/09/17 05:15:48;;;;;;;7.18;2.88;;;;;;;17.17;97.97;93760.59;5129451;27;20624;-73
2022/09/17 05:18:14;;;;;;;5.65;1.80;;;;;;;17.29;96.32;93754.75;5130143;28;20568;-73
2022/09/17 05:20:43;;;;;;;5.45;2.08;;;;;;;17.60;94.28;93753.16;5130479;28;20250;-74
2022/09/17 05:23:10;;;;;;;5.85;2.00;;;;;;;17.70;93.60;93746.13;5130689;27;20289;-73
2022/09/17 05:25:37;;;;;;;7.07;2.40;;;;;;;17.82;93.21;93729.25;5129998;28;20201;-73
2022/09/17 05:28:05;;;;;;;5.30;2.00;;;;;;;17.69;94.55;93712.47;5129966;28;20254;-72
2022/09/17 05:30:32;;;;;;;6.47;2.60;;;;;;;17.55;95.77;93707.00;5130849;28;20206;-72
2022/09/17 05:33:01;;;;;;;4.70;2.38;;;;;;;17.51;96.18;93705.41;5130670;27;20213;-72
2022/09/17 05:35:27;;;;;;;6.95;2.45;;;;;;;17.57;95.48;93715.59;5129204;27;20255;-72
2022/09/17 05:37:59;;;;;;;6.32;2.70;;;;;;;17.63;96.44;93735.16;5130226;28;20201;-75
2022/09/17 05:40:26;;;;;;;3.75;2.67;;;;;;;17.73;97.47;93750.81;5116714;28;20208;-72
2022/09/17 05:42:58;;;;;;;7.22;2.80;;;;;;;17.74;97.74;93735.94;5130826;27;20285;-73
2022/09/17 05:45:25;;;;;;;6.10;3.15;;;;;;;17.84;95.96;93737.09;5118108;28;20185;-73
2022/09/17 05:47:55;;;;;;;8.38;2.42;;;;;;;18.10;92.03;93742.88;5129258;27;20270;-74
2022/09/17 05:50:22;;;;;;;3.42;2.30;;;;;;;18.20;94.51;93746.75;5130526;27;20280;-73
2022/09/17 05:52:49;;;;;;;10.23;2.67;;;;;;;18.17;91.49;93742.09;5129930;28;20324;-73
2022/09/17 05:55:17;;;;;;;4.65;2.60;;;;;;;18.13;93.90;93741.31;5129541;27;20296;-73
2022/09/17 05:57:44;;;;;;;3.95;2.40;;;;;;;18.10;92.88;93753.06;5129191;28;20197;-73
2022/09/17 06:00:12;;;;;;;7.30;3.15;;;;;;;18.01;95.01;93752.72;5130461;27;20730;-73
2022/09/17 06:02:39;;;;;;;8.68;3.58;;;;;;;17.83;96.97;93747.28;5132608;27;20257;-75
2022/09/17 06:05:07;;;;;;;9.77;4.05;;;;;;;17.86;97.15;93745.69;5132182;27;20193;-74
2022/09/17 06:07:35;;;;;;;5.25;3.58;;;;;;;17.91;96.30;93745.28;5132329;27;20209;-73
2022/09/17 06:10:03;;;;;;;7.05;3.38;;;;;;;18.04;96.72;93740.97;5133057;27;20660;-73
2022/09/17 06:12:31;;;;;;;10.93;3.47;;;;;;;18.10;92.71;93740.16;5130203;27;20356;-72
2022/09/17 06:14:58;;;;;;;7.32;2.85;;;;;;;18.26;92.17;93739.69;5132336;27;20253;-73
2022/09/17 06:17:24;;;;;;;9.20;2.67;;;;;;;18.32;92.03;93732.63;5131867;27;20273;-73
2022/09/17 06:19:51;;;;;;;8.30;3.35;;;;;;;18.44;89.29;93748.66;5132745;27;20197;-74
2022/09/17 06:22:19;;;;;;;5.20;2.90;;;;;;;18.42;91.43;93759.22;5132049;27;20742;-75
2022/09/17 06:24:46;;;;;;;8.43;3.75;;;;;;;17.95;96.66;93796.16;5131342;27;20322;-75
2022/09/17 06:27:13;;;;;;;10.18;4.43;;;;;;;17.54;100.00;93809.50;5130939;27;20201;-75
2022/09/17 06:29:42;;;;;;;7.90;4.05;;;;;;;17.46;100.00;93818.88;5132900;27;20197;-75
2022/09/17 06:32:11;;;;;;;11.15;3.83;;;;;;;17.25;100.00;93833.31;5132553;27;20213;-75
2022/09/17 06:34:38;;;;;;;15.70;4.85;;;;;;;17.13;100.00;93832.91;5132294;27;20193;-73
2022/09/17 06:37:06;;;;;;;11.70;4.75;;;;;;;17.07;100.00;93850.91;5119438;27;20275;-74
2022/09/17 06:39:33;;;;;;;8.10;4.75;;;;;;;16.99;100.00;93845.41;5132565;27;20203;-72
2022/09/17 06:41:59;;;;;;;10.68;4.75;;;;;;;17.03;100.00;93857.16;5132760;27;20193;-73
2022/09/17 06:44:26;;;;;;;10.32;5.07;;;;;;;17.09;100.00;93838.38;5131476;27;20303;-73
2022/09/17 06:46:54;;;;;;;13.10;4.70;;;;;;;17.03;100.00;93824.31;5130572;27;20274;-73
2022/09/17 06:49:21;;;;;;;15.32;4.60;;;;;;;17.18;100.00;93807.91;5131171;27;20584;-74
2022/09/17 06:51:48;;;;;;;12.00;6.60;;;;;;;17.32;100.00;93811.44;5133050;27;20655;-74
2022/09/17 06:54:14;;;;;;;9.02;5.00;;;;;;;17.39;100.00;93807.91;5132771;27;20204;-74
2022/09/17 06:56:41;;;;;;;10.45;4.38;;;;;;;17.57;100.00;93796.97;5131732;27;20238;-73
2022/09/17 06:59:08;;;;;;;10.07;4.35;;;;;;;17.72;100.00;93804.81;5131423;27;20193;-72
2022/09/17 07:01:35;;;;;;;9.23;4.93;;;;;;;17.77;100.00;93797.41;5128070;27;20636;-75
2022/09/17 07:04:03;;;;;;;8.70;4.80;;;;;;;17.90;99.28;93787.59;5131001;27;20227;-74
2022/09/17 07:06:30;;;;;;;14.75;4.35;;;;;;;18.09;98.47;93773.44;5129513;27;20193;-75
2022/09/17 07:08:58;;;;;;;8.68;4.28;;;;;;;18.22;97.43;93736.19;5130033;27;20276;-75
2022/09/17 07:11:25;;;;;;;6.80;4.65;;;;;;;18.25;95.91;93735.41;5131467;27;20725;-75
2022/09/17 07:13:52;;;;;;;9.40;5.30;;;;;;;18.25;95.85;93720.91;5130618;27;20534;-75
2022/09/17 07:16:19;;;;;;;9.48;4.93;;;;;;;18.63;94.77;93724.66;5131308;27;20198;-75
2022/09/17 07:18:46;;;;;;;12.82;5.40;;;;;;;18.74;92.88;93731.66;5131247;27;20201;-74
2022/09/17 07:21:14;;;;;;;8.88;3.95;;;;;;;19.04;90.93;93694.59;5132195;27;20201;-73
2022/09/17 07:23:41;;;;;;;11.50;5.00;;;;;;;19.63;87.09;93692.53;5131800;27;20300;-74
2022/09/17 07:26:12;;;;;;;7.43;3.15;;;;;;;20.24;84.86;93698.13;5130306;27;20257;-73
2022/09/17 07:28:40;;;;;;;9.68;4.90;;;;;;;20.69;84.57;93722.75;5130704;27;20197;-74
2022/09/17 07:31:09;;;;;;;8.27;3.95;;;;;;;21.20;81.86;93711.41;5130836;27;20220;-75
2022/09/17 07:33:36;;;;;;;9.68;3.85;;;;;;;21.23;79.51;93699.56;5131472;27;20205;-78
2022/09/17 07:36:05;;;;;;;6.75;3.08;;;;;;;21.72;78.75;93694.41;5130355;27;20238;-77
2022/09/17 07:38:34;;;;;;;5.65;3.15;;;;;;;21.70;78.23;93707.84;5131453;27;20196;-75
2022/09/17 07:41:03;;;;;;;9.55;3.50;;;;;;;21.74;77.07;93707.75;5132651;27;20287;-77
2022/09/17 07:43:32;;;;;;;11.60;4.45;;;;;;;21.32;78.85;93709.28;5131577;27;20229;-76
2022/09/17 07:46:00;;;;;;;8.43;4.18;;;;;;;20.80;79.59;93704.88;5130187;27;20227;-75
2022/09/17 07:48:28;;;;;;;14.45;4.35;;;;;;;20.41;80.67;93691.66;5130372;27;20281;-74
2022/09/17 07:50:55;;;;;;;9.38;5.00;;;;;;;20.23;81.82;93713.06;5129762;27;20612;-75
2022/09/17 07:53:22;;;;;;;10.25;4.93;;;;;;;20.31;81.89;93714.56;5130590;27;20189;-75
2022/09/17 07:55:54;;;;;;;7.10;3.65;;;;;;;20.32;82.18;93704.34;5127587;27;20200;-75
2022/09/17 07:58:22;;;;;;;7.47;3.85;;;;;;;20.09;82.74;93710.53;5124487;27;20261;-77
2022/09/17 08:00:49;;;;;;;11.48;4.30;;;;;;;19.91;82.97;93696.19;5131395;27;20201;-75
2022/09/17 08:03:17;;;;;;;10.73;4.13;;;;;;;19.86;84.00;93694.66;5130756;27;20234;-76
2022/09/17 08:05:43;;;;;;;8.02;4.20;;;;;;;20.45;83.03;93706.16;5130853;27;20265;-76
2022/09/17 08:08:10;;;;;;;11.50;4.03;;;;;;;20.62;82.46;93695.34;5130363;27;20220;-74
2022/09/17 08:10:37;;;;;;;8.35;4.30;;;;;;;20.83;80.85;93697.78;5127093;27;20273;-75
2022/09/17 08:13:05;;;;;;;9.75;3.33;;;;;;;21.34;79.14;93690.31;5130906;27;20607;-75
2022/09/17 08:15:32;;;;;;;11.45;4.93;;;;;;;21.25;78.24;93683.38;5130002;27;20201;-74
2022/09/17 08:17:59;;;;;;;13.10;4.65;;;;;;;21.29;77.82;93672.31;5129660;27;20616;-76
2022/09/17 08:20:26;;;;;;;8.25;3.92;;;;;;;21.32;76.67;93670.72;5129535;27;20201;-76
2022/09/17 08:22:59;;;;;;;7.65;3.15;;;;;;;21.28;77.53;93682.56;5129781;27;20560;-73
2022/09/17 08:25:26;;;;;;;8.30;4.35;;;;;;;21.67;76.34;93675.59;5129281;27;20748;-72
2022/09/17 08:27:54;;;;;;;7.22;3.40;;;;;;;22.40;73.69;93676.59;5128986;27;20201;-75
2022/09/17 08:30:23;;;;;;;6.05;2.92;;;;;;;22.82;70.05;93661.09;5129479;27;20252;-73
2022/09/17 08:32:49;;;;;;;10.23;3.03;;;;;;;22.59;70.89;93659.97;5126705;27;20200;-72
2022/09/17 08:35:16;;;;;;;5.60;2.53;;;;;;;23.04;70.19;93667.69;5127887;27;20193;-71
2022/09/17 08:37:43;;;;;;;7.88;2.80;;;;;;;23.47;68.77;93663.88;5128490;27;20301;-72
2022/09/17 08:40:15;;;;;;;7.13;2.78;;;;;;;22.90;68.85;93665.25;5125830;27;20205;-75
2022/09/17 08:42:53;;;;;;;5.50;2.30;;;;;;;23.16;68.88;93671.75;5128919;27;20279;-73
2022/09/17 08:45:22;;;;;;;5.35;2.40;;;;;;;23.13;67.67;93662.31;5128254;27;20242;-73
2022/09/17 08:47:49;;;;;;;6.25;2.38;;;;;;;23.00;67.70;93675.25;5127757;27;20209;-73
2022/09/17 08:50:26;;;;;;;6.60;2.25;;;;;;;22.89;68.37;93653.41;5107412;28;20734;-70
2022/09/17 08:53:26;;;;;;;8.05;2.90;;;;;;;22.62;69.41;93645.31;5103425;28;20547;-74
2022/09/17 08:56:01;;;;;;;9.52;2.50;;;;;;;23.20;67.96;93673.22;5102650;28;20198;-72
2022/09/17 08:58:48;;;;;;;6.18;2.90;;;;;;;23.33;66.36;93671.31;5101637;28;20204;-72
2022/09/17 09:01:25;;;;;;;9.30;2.35;;;;;;;22.79;68.34;93648.94;5108932;28;20220;-72
2022/09/17 09:04:09;;;;;;;5.95;3.03;;;;;;;22.40;69.63;93660.03;5107894;28;20684;-73
2022/09/17 09:06:41;;;;;;;5.45;2.17;;;;;;;22.46;70.46;93670.13;5107023;28;20285;-74
2022/09/17 09:09:14;;;;;;;5.32;1.90;;;;;;;22.46;71.84;93659.06;5106985;28;20193;-74
2022/09/17 09:11:42;;;;;;;7.20;2.42;;;;;;;21.91;73.58;93668.81;5107235;28;20229;-74
2022/09/17 09:14:18;;;;;;;5.50;2.30;;;;;;;21.54;78.42;93682.91;5108160;28;20190;-74
2022/09/17 09:16:49;;;;;;;3.42;1.90;;;;;;;21.14;76.95;93704.78;5109291;28;20201;-75
2022/09/17 09:19:21;;;;;;;5.15;2.25;;;;;;;20.66;78.05;93685.81;5108768;28;20205;-73
2022/09/17 09:22:01;;;;;;;6.15;2.55;;;;;;;20.42;82.97;93698.72;5107753;28;20274;-74
2022/09/17 09:24:36;;;;;;;8.23;2.67;;;;;;;20.46;84.47;93710.47;5095757;28;20672;-73
2022/09/17 09:27:14;;;;;;;3.55;2.70;;;;;;;20.38;85.09;93709.00;5108015;28;20193;-75
2022/09/17 09:29:50;;;;;;;5.18;2.20;;;;;;;20.20;84.64;93724.91;5105485;28;20373;-75
2022/09/17 09:32:32;;;;;;;8.13;3.22;;;;;;;20.25;84.56;93721.69;5097607;28;20206;-73
2022/09/17 09:35:02;;;;;;;5.45;2.97;;;;;;;20.30;88.26;93724.00;5109756;28;20190;-75
2022/09/17 09:37:33;;;;;;;7.45;3.05;;;;;;;20.26;86.92;93739.75;5110230;28;20547;-74
2022/09/17 09:40:16;;;;;;;8.02;3.47;;;;;;;20.23;89.42;93751.59;5110716;28;20212;-74
2022/09/17 09:42:44;;;;;;;7.40;2.85;;;;;;;20.17;88.06;93750.47;5111362;28;20205;-73
2022/09/17 09:45:15;;;;;;;7.20;3.20;;;;;;;20.01;88.05;93756.53;5110790;28;20241;-74
2022/09/17 09:47:53;;;;;;;5.43;3.13;;;;;;;19.68;88.45;93758.03;5110706;28;20197;-73
2022/09/17 09:50:32;;;;;;;5.15;2.70;;;;;;;19.41;91.84;93757.06;5078100;28;20680;-75
2022/09/17 09:53:07;;;;;;;3.78;2.53;;;;;;;19.36;93.69;93771.25;5089659;28;20708;-74
2022/09/17 09:55:54;;;;;;;7.32;2.63;;;;;;;19.13;94.28;93766.31;5090550;28;20201;-73
2022/09/17 09:58:30;;;;;;;6.30;3.05;;;;;;;18.98;95.26;93781.31;5089976;28;20272;-74
2022/09/17 10:00:56;;;;;;;6.00;3.13;;;;;;;19.08;97.65;93772.22;5089430;28;20194;-74
2022/09/17 10:03:30;;;;;;;7.80;3.58;;;;;;;18.76;100.00;93745.75;5091234;28;20214;-74
2022/09/17 10:05:59;;;;;;;5.78;3.33;;;;;;;18.67;100.00;93737.19;5083590;28;20206;-74
2022/09/17 10:08:27;;;;;;;8.13;2.97;;;;;;;18.50;100.00;93707.06;5091361;28;20206;-73
2022/09/17 10:10:56;;;;;;;14.15;4.60;;;;;;;18.44;100.00;93685.56;5090863;28;21014;-75
2022/09/17 10:13:24;;;;;;;6.47;3.75;;;;;;;18.36;100.00;93678.53;5091043;28;20215;-74
2022/09/17 10:15:50;;;;;;;8.32;4.32;;;;;;;18.21;100.00;93687.25;5091027;28;20210;-75
2022/09/17 10:18:19;;;;;;;8.50;3.78;;;;;;;18.21;100.00;93665.31;5091118;28;20199;-74
2022/09/17 10:20:52;;;;;;;10.85;4.95;;;;;;;18.17;100.00;93670.03;5091571;28;20862;-74
2022/09/17 10:23:19;;;;;;;12.70;5.18;;;;;;;18.11;100.00;93645.78;5082838;28;20198;-74
2022/09/17 10:25:47;;;;;;;8.90;4.25;;;;;;;18.02;100.00;93636.44;5090269;28;20226;-75
2022/09/17 10:28:44;;;;;;;7.50;3.13;;;;;;;17.91;100.00;93619.25;5091468;28;20239;-73
2022/09/17 10:31:11;;;;;;;5.20;2.90;;;;;;;17.96;100.00;93630.56;5091358;28;20218;-83
2022/09/17 10:33:52;;;;;;;6.03;3.60;;;;;;;17.94;100.00;93618.44;5090633;28;20213;-77
2022/09/17 10:36:37;;;;;;;6.57;3.00;;;;;;;17.91;100.00;93654.88;5090427;28;20194;-75
2022/09/17 10:39:19;;;;;;;8.38;3.35;;;;;;;17.91;100.00;93641.16;5091158;28;20202;-75
2022/09/17 10:41:54;;;;;;;8.90;3.88;;;;;;;18.09;100.00;93619.94;5090367;28;20202;-75
2022/09/17 10:44:23;;;;;;;6.60;3.20;;;;;;;18.16;100.00;93619.13;5090739;28;20658;-77
2022/09/17 10:46:51;;;;;;;6.93;4.00;;;;;;;18.16;100.00;93630.88;5089744;28;20275;-75
2022/09/17 10:49:33;;;;;;;8.02;3.33;;;;;;;18.14;100.00;93600.34;5114856;27;20648;-78
2022/09/17 10:52:10;;;;;;;13.13;4.28;;;;;;;18.11;100.00;93595.66;5118855;27;20197;-78
2022/09/17 10:55:17;;;;;;;4.00;2.55;;;;;;;18.09;100.00;93598.03;5131739;27;20245;-76
2022/09/17 10:58:13;;;;;;;6.05;2.97;;;;;;;18.23;100.00;93573.25;5115203;27;20292;-78
2022/09/17 11:00:48;;;;;;;6.05;2.92;;;;;;;18.54;100.00;93600.88;5125290;27;20201;-79
2022/09/17 11:03:40;;;;;;;6.00;2.72;;;;;;;18.69;96.80;93558.47;5130306;27;20295;-76
2022/09/17 11:06:42;;;;;;;4.68;1.95;;;;;;;18.98;94.19;93570.75;5130823;27;20221;-74
2022/09/17 11:09:23;;;;;;;3.67;1.50;;;;;;;19.22;89.92;93606.59;5130710;27;20229;-74
2022/09/17 11:12:01;;;;;;;3.17;1.23;;;;;;;19.14;93.24;93611.34;5131143;27;20629;-81
2022/09/17 11:14:50;;;;;;;3.97;2.72;;;;;;;19.29;96.19;93612.00;5131784;27;20248;-75
2022/09/17 11:17:35;;;;;;;9.50;2.50;;;;;;;19.88;94.88;93594.09;5130929;27;20348;-74
2022/09/17 11:20:07;;;;;;;4.55;1.90;;;;;;;19.99;91.47;93604.19;5131081;27;20672;-75
2022/09/17 11:22:45;;;;;;;3.10;1.75;;;;;;;20.00;92.73;93600.25;5130322;27;20369;-74
2022/09/17 11:25:28;;;;;;;4.43;2.30;;;;;;;20.15;89.38;93609.88;5129435;27;20292;-75
2022/09/17 11:28:06;;;;;;;6.35;3.25;;;;;;;20.13;89.90;93631.50;5131182;27;20192;-74
2022/09/17 11:30:44;;;;;;;7.05;2.33;;;;;;;20.58;88.72;93643.88;5127928;27;20363;-72
2022/09/17 11:33:22;;;;;;;5.85;2.45;;;;;;;20.43;88.77;93623.25;5126252;27;20196;-73
2022/09/17 11:35:58;;;;;;;4.07;2.40;;;;;;;20.38;88.49;93626.47;5129328;27;20205;-71
2022/09/17 11:38:32;;;;;;;4.72;3.22;;;;;;;20.11;87.50;93620.91;5129324;27;20193;-72
2022/09/17 11:41:04;;;;;;;5.40;2.83;;;;;;;20.17;86.49;93651.50;5119075;27;20198;-72
2022/09/17 11:43:34;;;;;;;7.70;3.30;;;;;;;20.06;88.55;93632.38;5128656;27;20228;-71
2022/09/17 11:46:07;;;;;;;6.18;3.38;;;;;;;19.99;89.49;93640.69;5129459;27;20238;-72
2022/09/17 11:48:39;;;;;;;5.90;2.30;;;;;;;19.70;88.12;93647.72;5130196;27;20285;-73